Terminal Aerodrome Forecast
Issued by NWS Flagstaff, AZ

Home | Current Version | Previous Version | Text Only | Print | Product List | Glossary On
Versions: 1 2 3 4 5 6 7 8 9 10 11 12 13 14 15
000
FTUS45 KFGZ 281100
TAFINW
TAF
KINW 281120Z 2812/2912 VRB05KT P6SM SCT090
     FM281700 05008KT P6SM BKN090
     FM290200 27008KT P6SM FEW080=

USA.gov is the U.S. government's official web portal to all federal, state and local government web resources and services.